Time;durP1;ratioP1;P1;durP2;ratioP2;P2;SDS_P1;SDS_P2;PMS_P1;PMS_P2;Temp;Humidity;BMP_temperature;BMP_pressure;BME280_temperature;BME280_humidity;BME280_pressure;Samples;Min_cycle;Max_cycle;Signal;HPM_P1;HPM_P2
2022/10/15 00:00:27;;;;;;;;;;;;;;;;;;5128034;27;20359;-57
2022/10/15 00:02:53;;;;;;;;;;;;;;;;;;5132798;27;19908;-57
2022/10/15 00:05:18;;;;;;;;;;;;;;;;;;5127561;27;19920;-55
2022/10/15 00:07:44;;;;;;;;;;;;;;;;;;5131808;27;19918;-57
2022/10/15 00:10:10;;;;;;;;;;;;;;;;;;5130668;27;19915;-57
2022/10/15 00:12:36;;;;;;;;;;;;;;;;;;5129467;27;19944;-57
2022/10/15 00:15:02;;;;;;;;;;;;;;;;;;5132304;27;19908;-57
2022/10/15 00:17:28;;;;;;;;;;;;;;;;;;5127371;27;20318;-57
2022/10/15 00:19:54;;;;;;;;;;;;;;;;;;5133167;27;19945;-57
2022/10/15 00:22:20;;;;;;;;;;;;;;;;;;5128653;27;19955;-57
2022/10/15 00:24:45;;;;;;;;;;;;;;;;;;5132987;27;19953;-57
2022/10/15 00:27:11;;;;;;;;;;;;;;;;;;5128774;27;20398;-57
2022/10/15 00:29:37;;;;;;;;;;;;;;;;;;5131046;27;19957;-58
2022/10/15 00:32:03;;;;;;;;;;;;;;;;;;5130493;27;20363;-57
2022/10/15 00:34:29;;;;;;;;;;;;;;;;;;5131635;27;19911;-57
2022/10/15 00:36:55;;;;;;;;;;;;;;;;;;5127417;27;19911;-58
2022/10/15 00:39:21;;;;;;;;;;;;;;;;;;5125517;27;20309;-57
2022/10/15 00:41:47;;;;;;;;;;;;;;;;;;5129543;27;19915;-57
2022/10/15 00:44:13;;;;;;;;;;;;;;;;;;5132013;27;19907;-57
2022/10/15 00:46:38;;;;;;;;;;;;;;;;;;5129088;27;19917;-57
2022/10/15 00:49:04;;;;;;;;;;;;;;;;;;5132277;27;20408;-57
2022/10/15 00:51:30;;;;;;;;;;;;;;;;;;5127787;27;19915;-57
2022/10/15 00:53:56;;;;;;;;;;;;;;;;;;5131776;27;19962;-56
2022/10/15 00:56:22;;;;;;;;;;;;;;;;;;5126527;27;20272;-57
2022/10/15 00:58:48;;;;;;;;;;;;;;;;;;5138940;27;19918;-57
2022/10/15 01:01:14;;;;;;;;;;;;;;;;;;5131879;27;19930;-57
2022/10/15 01:03:39;;;;;;;;;;;;;;;;;;5133143;27;19951;-57
2022/10/15 01:06:05;;;;;;;;;;;;;;;;;;5132286;27;19923;-57
2022/10/15 01:08:31;;;;;;;;;;;;;;;;;;5117679;27;19916;-57
2022/10/15 01:10:57;;;;;;;;;;;;;;;;;;5115945;28;20009;-58
2022/10/15 01:13:23;;;;;;;;;;;;;;;;;;5132540;28;20394;-57
2022/10/15 01:15:49;;;;;;;;;;;;;;;;;;5132861;27;19916;-58
2022/10/15 01:18:15;;;;;;;;;;;;;;;;;;5121784;28;19953;-58
2022/10/15 01:20:41;;;;;;;;;;;;;;;;;;5132367;28;19918;-58
2022/10/15 01:23:06;;;;;;;;;;;;;;;;;;5133249;28;19907;-57
2022/10/15 01:25:32;;;;;;;;;;;;;;;;;;5132063;28;19943;-58
2022/10/15 01:27:58;;;;;;;;;;;;;;;;;;5132124;28;19955;-57
2022/10/15 01:30:24;;;;;;;;;;;;;;;;;;5117945;28;20314;-57
2022/10/15 01:32:50;;;;;;;;;;;;;;;;;;5130163;27;19922;-58
2022/10/15 01:35:16;;;;;;;;;;;;;;;;;;5134589;27;19907;-57
2022/10/15 01:37:42;;;;;;;;;;;;;;;;;;5135603;27;19911;-57
2022/10/15 01:40:08;;;;;;;;;;;;;;;;;;5128091;27;20020;-57
2022/10/15 01:42:34;;;;;;;;;;;;;;;;;;5135856;27;19912;-58
2022/10/15 01:44:59;;;;;;;;;;;;;;;;;;5137091;27;19911;-57
2022/10/15 01:47:25;;;;;;;;;;;;;;;;;;5135641;27;20348;-58
2022/10/15 01:49:51;;;;;;;;;;;;;;;;;;5117653;27;19919;-57
2022/10/15 01:52:17;;;;;;;;;;;;;;;;;;5136163;27;19965;-57
2022/10/15 01:54:43;;;;;;;;;;;;;;;;;;5132491;27;19907;-57
2022/10/15 01:57:09;;;;;;;;;;;;;;;;;;5115617;28;19927;-57
2022/10/15 01:59:35;;;;;;;;;;;;;;;;;;5122701;27;19915;-58
2022/10/15 02:02:01;;;;;;;;;;;;;;;;;;5136132;27;19915;-58
2022/10/15 02:04:27;;;;;;;;;;;;;;;;;;5121749;27;20368;-57
2022/10/15 02:06:53;;;;;;;;;;;;;;;;;;5134907;27;19917;-58
2022/10/15 02:09:19;;;;;;;;;;;;;;;;;;5123681;27;20014;-58
2022/10/15 02:11:45;;;;;;;;;;;;;;;;;;5136094;27;20356;-57
2022/10/15 02:14:11;;;;;;;;;;;;;;;;;;5136499;27;19907;-58
2022/10/15 02:16:36;;;;;;;;;;;;;;;;;;5135459;27;19946;-58
2022/10/15 02:19:02;;;;;;;;;;;;;;;;;;5135467;27;20524;-57
2022/10/15 02:21:28;;;;;;;;;;;;;;;;;;5124313;27;20482;-57
2022/10/15 02:23:54;;;;;;;;;;;;;;;;;;5115426;27;19953;-57
2022/10/15 02:26:20;;;;;;;;;;;;;;;;;;5128113;27;19966;-57
2022/10/15 02:28:46;;;;;;;;;;;;;;;;;;5132534;27;19908;-57
2022/10/15 02:31:12;;;;;;;;;;;;;;;;;;5125530;27;19920;-57
2022/10/15 02:33:38;;;;;;;;;;;;;;;;;;5135515;27;19911;-57
2022/10/15 02:36:04;;;;;;;;;;;;;;;;;;5124957;27;19958;-57
2022/10/15 02:38:30;;;;;;;;;;;;;;;;;;5124566;27;19999;-57
2022/10/15 02:40:56;;;;;;;;;;;;;;;;;;5130694;27;20322;-58
2022/10/15 02:43:21;;;;;;;;;;;;;;;;;;5124259;27;19911;-57
2022/10/15 02:45:47;;;;;;;;;;;;;;;;;;5134754;27;19939;-57
2022/10/15 02:48:13;;;;;;;;;;;;;;;;;;5129197;27;19915;-57
2022/10/15 02:50:39;;;;;;;;;;;;;;;;;;5125402;27;19923;-57
2022/10/15 02:53:05;;;;;;;;;;;;;;;;;;5117808;27;19908;-57
2022/10/15 02:55:31;;;;;;;;;;;;;;;;;;5113699;28;20376;-57
2022/10/15 02:57:57;;;;;;;;;;;;;;;;;;5118054;27;19919;-56
2022/10/15 03:00:23;;;;;;;;;;;;;;;;;;5133366;27;19908;-57
2022/10/15 03:02:49;;;;;;;;;;;;;;;;;;5114776;28;19908;-57
2022/10/15 03:05:14;;;;;;;;;;;;;;;;;;5113646;28;19926;-57
2022/10/15 03:07:40;;;;;;;;;;;;;;;;;;5114257;27;19912;-57
2022/10/15 03:10:06;;;;;;;;;;;;;;;;;;5125451;27;19922;-57
2022/10/15 03:12:32;;;;;;;;;;;;;;;;;;5133962;27;20417;-55
2022/10/15 03:14:58;;;;;;;;;;;;;;;;;;5125428;27;20356;-57
2022/10/15 03:17:24;;;;;;;;;;;;;;;;;;5129549;27;19962;-57
2022/10/15 03:19:50;;;;;;;;;;;;;;;;;;5135232;27;19912;-57
2022/10/15 03:22:16;;;;;;;;;;;;;;;;;;5133701;27;19914;-56
2022/10/15 03:24:42;;;;;;;;;;;;;;;;;;5135272;27;20002;-58
2022/10/15 03:27:07;;;;;;;;;;;;;;;;;;5134565;27;20408;-55
2022/10/15 03:29:33;;;;;;;;;;;;;;;;;;5132940;27;19933;-56
2022/10/15 03:31:59;;;;;;;;;;;;;;;;;;5131550;27;19923;-57
2022/10/15 03:34:25;;;;;;;;;;;;;;;;;;5118432;27;20002;-57
2022/10/15 03:36:51;;;;;;;;;;;;;;;;;;5134413;27;19907;-57
2022/10/15 03:39:17;;;;;;;;;;;;;;;;;;5132439;27;20257;-57
2022/10/15 03:41:43;;;;;;;;;;;;;;;;;;5131976;27;19954;-57
2022/10/15 03:44:09;;;;;;;;;;;;;;;;;;5134833;27;20420;-57
2022/10/15 03:46:34;;;;;;;;;;;;;;;;;;5110975;27;19918;-58
2022/10/15 03:49:00;;;;;;;;;;;;;;;;;;5136589;27;19918;-57
2022/10/15 03:51:26;;;;;;;;;;;;;;;;;;5127628;27;20065;-56
2022/10/15 03:53:52;;;;;;;;;;;;;;;;;;5131544;27;19927;-57
2022/10/15 03:56:18;;;;;;;;;;;;;;;;;;5129224;27;19907;-57
2022/10/15 03:58:44;;;;;;;;;;;;;;;;;;5132400;27;20018;-57
2022/10/15 04:01:10;;;;;;;;;;;;;;;;;;5134003;27;19907;-57
2022/10/15 04:03:36;;;;;;;;;;;;;;;;;;5133757;27;20322;-57
2022/10/15 04:06:02;;;;;;;;;;;;;;;;;;5123811;27;19980;-57
2022/10/15 04:08:28;;;;;;;;;;;;;;;;;;5113792;27;19912;-57
2022/10/15 04:10:54;;;;;;;;;;;;;;;;;;5129978;27;19916;-57
2022/10/15 04:13:19;;;;;;;;;;;;;;;;;;5133528;27;20441;-57
2022/10/15 04:15:45;;;;;;;;;;;;;;;;;;5133090;27;19931;-57
2022/10/15 04:18:11;;;;;;;;;;;;;;;;;;5123452;27;19919;-57
2022/10/15 04:20:37;;;;;;;;;;;;;;;;;;5126217;27;19916;-56
2022/10/15 04:23:03;;;;;;;;;;;;;;;;;;5116626;27;19912;-55
2022/10/15 04:25:29;;;;;;;;;;;;;;;;;;5133495;27;20408;-57
2022/10/15 04:27:55;;;;;;;;;;;;;;;;;;5120457;27;19911;-57
2022/10/15 04:30:21;;;;;;;;;;;;;;;;;;5132213;27;20371;-57
2022/10/15 04:32:46;;;;;;;;;;;;;;;;;;5133951;27;19908;-57
2022/10/15 04:35:12;;;;;;;;;;;;;;;;;;5131749;27;19907;-56
2022/10/15 04:37:38;;;;;;;;;;;;;;;;;;5112273;28;20002;-56
2022/10/15 04:40:04;;;;;;;;;;;;;;;;;;5132895;27;19961;-57
2022/10/15 04:42:30;;;;;;;;;;;;;;;;;;5123491;27;20837;-57
2022/10/15 04:44:56;;;;;;;;;;;;;;;;;;5112156;27;19981;-57
2022/10/15 04:47:22;;;;;;;;;;;;;;;;;;5111910;28;19961;-57
2022/10/15 04:49:48;;;;;;;;;;;;;;;;;;5131447;27;20014;-58
2022/10/15 04:52:14;;;;;;;;;;;;;;;;;;5121698;27;19912;-57
2022/10/15 04:54:39;;;;;;;;;;;;;;;;;;5112860;28;20381;-57
2022/10/15 04:57:05;;;;;;;;;;;;;;;;;;5112078;28;19949;-57
2022/10/15 04:59:31;;;;;;;;;;;;;;;;;;5115645;27;19912;-57
2022/10/15 05:01:57;;;;;;;;;;;;;;;;;;5115842;27;19911;-57
2022/10/15 05:04:23;;;;;;;;;;;;;;;;;;5129245;27;20333;-57
2022/10/15 05:06:49;;;;;;;;;;;;;;;;;;5132382;27;19919;-58
2022/10/15 05:09:15;;;;;;;;;;;;;;;;;;5131714;27;20006;-57
2022/10/15 05:11:41;;;;;;;;;;;;;;;;;;5132465;27;19915;-58
2022/10/15 05:14:07;;;;;;;;;;;;;;;;;;5133291;28;19908;-58
2022/10/15 05:16:32;;;;;;;;;;;;;;;;;;5131516;28;19911;-57
2022/10/15 05:18:58;;;;;;;;;;;;;;;;;;5126608;27;20043;-56
2022/10/15 05:21:24;;;;;;;;;;;;;;;;;;5102295;27;19916;-57
2022/10/15 05:23:50;;;;;;;;;;;;;;;;;;5123593;27;20006;-58
2022/10/15 05:26:16;;;;;;;;;;;;;;;;;;5123300;27;20419;-58
2022/10/15 05:28:42;;;;;;;;;;;;;;;;;;5126972;27;19911;-57
2022/10/15 05:31:08;;;;;;;;;;;;;;;;;;5123391;27;19920;-56
2022/10/15 05:33:34;;;;;;;;;;;;;;;;;;5125894;27;20549;-57
2022/10/15 05:36:00;;;;;;;;;;;;;;;;;;5125097;27;19919;-57
2022/10/15 05:38:26;;;;;;;;;;;;;;;;;;5123565;28;19912;-57
2022/10/15 05:40:51;;;;;;;;;;;;;;;;;;5120041;27;19907;-57
2022/10/15 05:43:17;;;;;;;;;;;;;;;;;;5124071;27;19919;-57
2022/10/15 05:45:43;;;;;;;;;;;;;;;;;;5121421;27;19930;-57
2022/10/15 05:48:09;;;;;;;;;;;;;;;;;;5123357;27;19918;-57
2022/10/15 05:50:35;;;;;;;;;;;;;;;;;;5101379;28;19916;-57
2022/10/15 05:53:01;;;;;;;;;;;;;;;;;;5124693;27;19908;-57
2022/10/15 05:55:27;;;;;;;;;;;;;;;;;;5120196;27;20356;-57
2022/10/15 05:57:53;;;;;;;;;;;;;;;;;;5124548;27;20062;-57
2022/10/15 06:00:18;;;;;;;;;;;;;;;;;;5123940;28;20023;-57
2022/10/15 06:02:44;;;;;;;;;;;;;;;;;;5127643;28;20264;-58
2022/10/15 06:05:10;;;;;;;;;;;;;;;;;;5120812;27;20010;-57
2022/10/15 06:07:37;;;;;;;;;;;;;;;;;;5111416;27;19912;-57
2022/10/15 06:10:03;;;;;;;;;;;;;;;;;;5122495;28;19923;-57
2022/10/15 06:12:28;;;;;;;;;;;;;;;;;;5131693;27;20040;-57
2022/10/15 06:14:54;;;;;;;;;;;;;;;;;;5131537;28;20356;-56
2022/10/15 06:17:20;;;;;;;;;;;;;;;;;;5107286;28;19912;-52
2022/10/15 06:19:46;;;;;;;;;;;;;;;;;;5125460;27;19972;-55
2022/10/15 06:22:12;;;;;;;;;;;;;;;;;;5122759;27;19915;-57
2022/10/15 06:24:38;;;;;;;;;;;;;;;;;;5132390;27;19907;-56
2022/10/15 06:27:04;;;;;;;;;;;;;;;;;;5132647;27;19912;-57
2022/10/15 06:29:30;;;;;;;;;;;;;;;;;;5127191;27;20002;-57
2022/10/15 06:31:55;;;;;;;;;;;;;;;;;;5122348;27;19916;-57
2022/10/15 06:34:21;;;;;;;;;;;;;;;;;;5135123;27;20062;-57
2022/10/15 06:36:47;;;;;;;;;;;;;;;;;;5123202;27;19918;-55
2022/10/15 06:39:13;;;;;;;;;;;;;;;;;;5133823;27;19911;-54
2022/10/15 06:41:39;;;;;;;;;;;;;;;;;;5125325;27;19912;-56
2022/10/15 06:44:05;;;;;;;;;;;;;;;;;;5129687;27;20272;-56
2022/10/15 06:46:31;;;;;;;;;;;;;;;;;;5110077;27;20030;-51
2022/10/15 06:48:57;;;;;;;;;;;;;;;;;;5136002;27;19940;-49
2022/10/15 06:51:22;;;;;;;;;;;;;;;;;;5127398;27;19956;-54
2022/10/15 06:53:48;;;;;;;;;;;;;;;;;;5125104;27;19958;-57
2022/10/15 06:56:14;;;;;;;;;;;;;;;;;;5128864;27;19999;-59
2022/10/15 06:58:40;;;;;;;;;;;;;;;;;;5133669;27;19930;-58
2022/10/15 07:01:07;;;;;;;;;;;;;;;;;;5120104;27;20327;-59
2022/10/15 07:03:34;;;;;;;;;;;;;;;;;;5133643;27;19975;-57
2022/10/15 07:06:00;;;;;;;;;;;;;;;;;;5122346;27;19919;-59
2022/10/15 07:08:26;;;;;;;;;;;;;;;;;;5133513;27;20356;-59
2022/10/15 07:10:52;;;;;;;;;;;;;;;;;;5119389;27;19976;-59
2022/10/15 07:13:18;;;;;;;;;;;;;;;;;;5122960;27;19908;-58
2022/10/15 07:15:45;;;;;;;;;;;;;;;;;;5130418;27;19911;-58
2022/10/15 07:18:11;;;;;;;;;;;;;;;;;;5113426;27;20002;-56
2022/10/15 07:20:37;;;;;;;;;;;;;;;;;;5128123;27;20049;-56
2022/10/15 07:23:03;;;;;;;;;;;;;;;;;;5123951;27;19911;-55
2022/10/15 07:25:29;;;;;;;;;;;;;;;;;;5130281;27;19911;-56
2022/10/15 07:27:54;;;;;;;;;;;;;;;;;;5123420;27;20053;-56
2022/10/15 07:30:20;;;;;;;;;;;;;;;;;;5131096;27;20026;-56
2022/10/15 07:32:46;;;;;;;;;;;;;;;;;;5123626;27;19907;-56
2022/10/15 07:35:12;;;;;;;;;;;;;;;;;;5123086;27;19919;-58
2022/10/15 07:37:38;;;;;;;;;;;;;;;;;;5131859;27;19954;-56
2022/10/15 07:40:04;;;;;;;;;;;;;;;;;;5140324;27;19989;-57
2022/10/15 07:42:30;;;;;;;;;;;;;;;;;;5134184;27;19912;-57
2022/10/15 07:44:56;;;;;;;;;;;;;;;;;;5134217;27;19907;-57
2022/10/15 07:47:21;;;;;;;;;;;;;;;;;;5140904;27;20650;-58
2022/10/15 07:49:47;;;;;;;;;;;;;;;;;;5137525;27;20284;-57
2022/10/15 07:52:13;;;;;;;;;;;;;;;;;;5131930;27;20019;-57
2022/10/15 07:54:39;;;;;;;;;;;;;;;;;;5136627;27;19965;-57
2022/10/15 07:57:08;;;;;;;;;;;;;;;;;;5134588;27;19918;-58
2022/10/15 07:59:34;;;;;;;;;;;;;;;;;;5131141;27;19907;-57
2022/10/15 08:02:00;;;;;;;;;;;;;;;;;;5129897;27;19998;-57
2022/10/15 08:04:26;;;;;;;;;;;;;;;;;;5134831;27;19923;-57
2022/10/15 08:06:51;;;;;;;;;;;;;;;;;;5126441;27;19911;-56
2022/10/15 08:09:17;;;;;;;;;;;;;;;;;;5126770;27;19915;-57
2022/10/15 08:11:43;;;;;;;;;;;;;;;;;;5128416;27;20404;-55
2022/10/15 08:14:09;;;;;;;;;;;;;;;;;;5133441;27;19912;-56
2022/10/15 08:16:35;;;;;;;;;;;;;;;;;;5124906;27;19949;-56
2022/10/15 08:19:01;;;;;;;;;;;;;;;;;;5140225;27;19926;-57
2022/10/15 08:21:27;;;;;;;;;;;;;;;;;;5139452;27;19908;-57
2022/10/15 08:23:53;;;;;;;;;;;;;;;;;;5143382;27;19923;-56
2022/10/15 08:26:18;;;;;;;;;;;;;;;;;;5135336;27;19915;-57
2022/10/15 08:28:44;;;;;;;;;;;;;;;;;;5141724;27;19912;-57
2022/10/15 08:31:10;;;;;;;;;;;;;;;;;;5108693;27;19915;-58
2022/10/15 08:33:36;;;;;;;;;;;;;;;;;;5124613;27;19907;-57
2022/10/15 08:36:02;;;;;;;;;;;;;;;;;;5121687;27;19911;-60
2022/10/15 08:38:28;;;;;;;;;;;;;;;;;;5136037;27;19952;-59
2022/10/15 08:40:54;;;;;;;;;;;;;;;;;;5138015;27;20406;-59
2022/10/15 08:43:20;;;;;;;;;;;;;;;;;;5125125;27;20014;-59
2022/10/15 08:45:47;;;;;;;;;;;;;;;;;;5127460;27;20319;-58
2022/10/15 08:48:13;;;;;;;;;;;;;;;;;;5124897;27;20284;-58
2022/10/15 08:50:39;;;;;;;;;;;;;;;;;;5117437;27;19928;-56
2022/10/15 08:53:05;;;;;;;;;;;;;;;;;;5126131;27;19942;-45
2022/10/15 08:55:31;;;;;;;;;;;;;;;;;;5125296;27;20494;-42
2022/10/15 08:57:57;;;;;;;;;;;;;;;;;;5125208;27;19911;-38
2022/10/15 09:00:23;;;;;;;;;;;;;;;;;;5123852;27;19911;-39
2022/10/15 09:02:48;;;;;;;;;;;;;;;;;;5128821;27;19919;-39
2022/10/15 09:05:14;;;;;;;;;;;;;;;;;;5128067;27;19926;-42
2022/10/15 09:07:41;;;;;;;;;;;;;;;;;;5112014;27;19952;-41
2022/10/15 09:10:07;;;;;;;;;;;;;;;;;;5121613;27;19924;-39
2022/10/15 09:12:33;;;;;;;;;;;;;;;;;;5128000;27;19903;-47
2022/10/15 09:14:59;;;;;;;;;;;;;;;;;;5125376;27;19912;-45
2022/10/15 09:17:25;;;;;;;;;;;;;;;;;;5116031;28;19908;-43
2022/10/15 09:19:51;;;;;;;;;;;;;;;;;;5128790;28;20242;-43
2022/10/15 09:22:17;;;;;;;;;;;;;;;;;;5114941;28;19998;-44
2022/10/15 09:24:43;;;;;;;;;;;;;;;;;;5127029;27;19911;-43
2022/10/15 09:27:09;;;;;;;;;;;;;;;;;;5117611;28;19934;-43
2022/10/15 09:29:34;;;;;;;;;;;;;;;;;;5127118;28;19918;-43
2022/10/15 09:32:00;;;;;;;;;;;;;;;;;;5118062;28;19982;-43
2022/10/15 09:34:26;;;;;;;;;;;;;;;;;;5125999;27;19920;-43
2022/10/15 09:36:52;;;;;;;;;;;;;;;;;;5121190;27;19911;-43
2022/10/15 09:39:18;;;;;;;;;;;;;;;;;;5128097;27;20321;-43
2022/10/15 09:41:44;;;;;;;;;;;;;;;;;;5123050;27;19943;-43
2022/10/15 09:44:12;;;;;;;;;;;;;;;;;;5124691;28;19920;-43
2022/10/15 09:46:38;;;;;;;;;;;;;;;;;;5123233;27;19915;-45
2022/10/15 09:49:04;;;;;;;;;;;;;;;;;;5119736;28;20371;-43
2022/10/15 09:51:30;;;;;;;;;;;;;;;;;;5116650;27;19919;-43
2022/10/15 09:53:56;;;;;;;;;;;;;;;;;;5118286;28;19908;-43
2022/10/15 09:56:21;;;;;;;;;;;;;;;;;;5123030;27;20293;-43
2022/10/15 09:58:47;;;;;;;;;;;;;;;;;;5112398;27;19912;-43
2022/10/15 10:01:13;;;;;;;;;;;;;;;;;;5125447;27;20277;-47
2022/10/15 10:03:39;;;;;;;;;;;;;;;;;;5131763;27;19962;-45
2022/10/15 10:06:05;;;;;;;;;;;;;;;;;;5127914;27;19927;-43
2022/10/15 10:08:31;;;;;;;;;;;;;;;;;;5132398;27;19912;-43
2022/10/15 10:10:57;;;;;;;;;;;;;;;;;;5113752;27;19927;-43
2022/10/15 10:13:23;;;;;;;;;;;;;;;;;;5133332;27;19915;-43
2022/10/15 10:15:48;;;;;;;;;;;;;;;;;;5130020;27;19916;-43
2022/10/15 10:18:14;;;;;;;;;;;;;;;;;;5132052;27;19908;-47
2022/10/15 10:20:40;;;;;;;;;;;;;;;;;;5128753;27;20427;-45
2022/10/15 10:23:06;;;;;;;;;;;;;;;;;;5129936;27;19943;-43
2022/10/15 10:25:32;;;;;;;;;;;;;;;;;;5129863;27;19911;-43
2022/10/15 10:27:58;;;;;;;;;;;;;;;;;;5130136;27;20831;-43
2022/10/15 10:30:24;;;;;;;;;;;;;;;;;;5126300;27;19955;-44
2022/10/15 10:32:49;;;;;;;;;;;;;;;;;;5131629;27;19914;-43
2022/10/15 10:35:15;;;;;;;;;;;;;;;;;;5132543;27;19964;-47
2022/10/15 10:37:41;;;;;;;;;;;;;;;;;;5126962;27;19950;-46
2022/10/15 10:40:07;;;;;;;;;;;;;;;;;;5131292;27;19918;-43
2022/10/15 10:42:33;;;;;;;;;;;;;;;;;;5125275;27;19903;-45
2022/10/15 10:44:59;;;;;;;;;;;;;;;;;;5130694;27;19947;-43
2022/10/15 10:47:25;;;;;;;;;;;;;;;;;;5125626;27;19994;-43
2022/10/15 10:49:51;;;;;;;;;;;;;;;;;;5130843;27;19933;-43
2022/10/15 10:52:17;;;;;;;;;;;;;;;;;;5126080;27;19940;-43
2022/10/15 10:54:43;;;;;;;;;;;;;;;;;;5108823;27;19911;-43
2022/10/15 10:57:08;;;;;;;;;;;;;;;;;;5130375;27;19926;-43
2022/10/15 10:59:37;;;;;;;;;;;;;;;;;;5129027;27;19919;-43
2022/10/15 11:02:05;;;;;;;;;;;;;;;;;;5129410;27;19915;-43
2022/10/15 11:04:31;;;;;;;;;;;;;;;;;;5130597;27;20710;-41
2022/10/15 11:06:56;;;;;;;;;;;;;;;;;;5127779;27;19912;-42
2022/10/15 11:09:22;;;;;;;;;;;;;;;;;;5128344;27;19907;-43
2022/10/15 11:11:48;;;;;;;;;;;;;;;;;;5130795;27;19919;-41
2022/10/15 11:14:16;;;;;;;;;;;;;;;;;;5130757;27;19923;-47
2022/10/15 11:16:42;;;;;;;;;;;;;;;;;;5123939;27;19918;-41
2022/10/15 11:19:08;;;;;;;;;;;;;;;;;;5129091;27;20415;-43
2022/10/15 11:21:34;;;;;;;;;;;;;;;;;;5136142;27;19974;-43
2022/10/15 11:23:59;;;;;;;;;;;;;;;;;;5121294;27;19915;-43
2022/10/15 11:26:25;;;;;;;;;;;;;;;;;;5122181;27;19911;-43
2022/10/15 11:28:52;;;;;;;;;;;;;;;;;;5127535;27;19996;-46
2022/10/15 11:31:18;;;;;;;;;;;;;;;;;;5111671;27;20038;-42
2022/10/15 11:33:44;;;;;;;;;;;;;;;;;;5129416;27;20476;-43
2022/10/15 11:36:10;;;;;;;;;;;;;;;;;;5124518;27;19939;-43
2022/10/15 11:38:36;;;;;;;;;;;;;;;;;;5122652;27;20280;-42
2022/10/15 11:41:01;;;;;;;;;;;;;;;;;;5127539;27;19919;-43
2022/10/15 11:43:27;;;;;;;;;;;;;;;;;;5132571;27;20367;-43
2022/10/15 11:45:53;;;;;;;;;;;;;;;;;;5127083;27;19950;-44
2022/10/15 11:48:19;;;;;;;;;;;;;;;;;;5123733;27;20403;-43
2022/10/15 11:50:45;;;;;;;;;;;;;;;;;;5119602;27;19920;-43
2022/10/15 11:53:11;;;;;;;;;;;;;;;;;;5122207;27;19920;-47
2022/10/15 11:55:37;;;;;;;;;;;;;;;;;;5123724;27;19914;-43
2022/10/15 11:58:03;;;;;;;;;;;;;;;;;;5123258;27;19911;-43
2022/10/15 12:00:29;;;;;;;;;;;;;;;;;;5129960;27;19931;-44
2022/10/15 12:02:54;;;;;;;;;;;;;;;;;;5131431;27;19914;-42
2022/10/15 12:05:20;;;;;;;;;;;;;;;;;;5131304;27;19941;-46
2022/10/15 12:07:46;;;;;;;;;;;;;;;;;;5123266;27;19912;-43
2022/10/15 12:10:13;;;;;;;;;;;;;;;;;;5118033;27;20407;-47
2022/10/15 12:12:39;;;;;;;;;;;;;;;;;;5110811;27;19912;-43
2022/10/15 12:15:05;;;;;;;;;;;;;;;;;;5131797;27;19944;-42
2022/10/15 12:17:30;;;;;;;;;;;;;;;;;;5128030;27;19999;-43
2022/10/15 12:19:56;;;;;;;;;;;;;;;;;;5133385;27;20291;-43
2022/10/15 12:22:22;;;;;;;;;;;;;;;;;;5135661;27;19915;-43
2022/10/15 12:24:50;;;;;;;;;;;;;;;;;;5144216;27;20056;-43
2022/10/15 12:27:16;;;;;;;;;;;;;;;;;;5132486;27;19911;-46
2022/10/15 12:29:42;;;;;;;;;;;;;;;;;;5140261;27;19919;-42
2022/10/15 12:32:08;;;;;;;;;;;;;;;;;;5135330;27;20111;-43
2022/10/15 12:34:34;;;;;;;;;;;;;;;;;;5140963;27;19985;-43
2022/10/15 12:37:00;;;;;;;;;;;;;;;;;;5139523;27;19914;-43
2022/10/15 12:39:25;;;;;;;;;;;;;;;;;;5130050;27;19935;-43
2022/10/15 12:41:51;;;;;;;;;;;;;;;;;;5123472;27;19907;-43
2022/10/15 12:44:17;;;;;;;;;;;;;;;;;;5124938;27;19907;-43
2022/10/15 12:46:43;;;;;;;;;;;;;;;;;;5121368;27;20382;-43
2022/10/15 12:49:09;;;;;;;;;;;;;;;;;;5119585;27;19922;-42
2022/10/15 12:51:35;;;;;;;;;;;;;;;;;;5117374;27;20397;-43
2022/10/15 12:54:01;;;;;;;;;;;;;;;;;;5122673;27;20035;-43
2022/10/15 12:56:27;;;;;;;;;;;;;;;;;;5117987;27;19908;-42
2022/10/15 12:58:53;;;;;;;;;;;;;;;;;;5115391;27;20325;-43
2022/10/15 13:01:19;;;;;;;;;;;;;;;;;;5119224;27;19958;-43
2022/10/15 13:03:45;;;;;;;;;;;;;;;;;;5132929;27;19911;-43
2022/10/15 13:06:11;;;;;;;;;;;;;;;;;;5132429;27;19963;-43
2022/10/15 13:08:36;;;;;;;;;;;;;;;;;;5131608;27;20302;-42
2022/10/15 13:11:02;;;;;;;;;;;;;;;;;;5132910;27;19912;-43
2022/10/15 13:13:28;;;;;;;;;;;;;;;;;;5132459;27;19926;-43
2022/10/15 13:15:54;;;;;;;;;;;;;;;;;;5132794;27;20356;-42
2022/10/15 13:18:20;;;;;;;;;;;;;;;;;;5131672;27;19995;-43
2022/10/15 13:20:47;;;;;;;;;;;;;;;;;;5125419;28;20348;-43
2022/10/15 13:23:13;;;;;;;;;;;;;;;;;;5132902;28;19907;-47
2022/10/15 13:25:39;;;;;;;;;;;;;;;;;;5132110;28;19914;-42
2022/10/15 13:28:05;;;;;;;;;;;;;;;;;;5126765;27;20056;-43
2022/10/15 13:30:31;;;;;;;;;;;;;;;;;;5133436;27;19915;-42
2022/10/15 13:32:57;;;;;;;;;;;;;;;;;;5136985;27;19911;-43
2022/10/15 13:35:23;;;;;;;;;;;;;;;;;;5130236;27;19994;-43
2022/10/15 13:37:49;;;;;;;;;;;;;;;;;;5119878;27;20287;-43
2022/10/15 13:40:14;;;;;;;;;;;;;;;;;;5128747;27;19916;-46
2022/10/15 13:42:40;;;;;;;;;;;;;;;;;;5136130;27;20061;-43
2022/10/15 13:45:06;;;;;;;;;;;;;;;;;;5116396;27;19918;-45
2022/10/15 13:47:33;;;;;;;;;;;;;;;;;;5115029;27;20495;-45
2022/10/15 13:50:01;;;;;;;;;;;;;;;;;;5128959;27;20005;-45
2022/10/15 13:52:27;;;;;;;;;;;;;;;;;;5131708;27;19911;-42
2022/10/15 13:54:53;;;;;;;;;;;;;;;;;;5129135;27;19911;-44
2022/10/15 13:57:19;;;;;;;;;;;;;;;;;;5133705;27;19939;-43
2022/10/15 13:59:45;;;;;;;;;;;;;;;;;;5124558;27;19915;-43
2022/10/15 14:02:10;;;;;;;;;;;;;;;;;;5124468;27;19922;-45
2022/10/15 14:04:36;;;;;;;;;;;;;;;;;;5117975;27;20418;-42
2022/10/15 14:07:02;;;;;;;;;;;;;;;;;;5103285;28;19908;-43
2022/10/15 14:09:29;;;;;;;;;;;;;;;;;;5109719;28;19962;-44
2022/10/15 14:11:55;;;;;;;;;;;;;;;;;;5110282;27;19919;-43
2022/10/15 14:14:21;;;;;;;;;;;;;;;;;;5113589;27;20292;-46
2022/10/15 14:16:47;;;;;;;;;;;;;;;;;;5124289;27;19908;-46
2022/10/15 14:19:14;;;;;;;;;;;;;;;;;;5109258;27;19973;-50
2022/10/15 14:21:40;;;;;;;;;;;;;;;;;;5100054;28;19915;-45
2022/10/15 14:24:06;;;;;;;;;;;;;;;;;;5105657;28;19912;-45
2022/10/15 14:26:32;;;;;;;;;;;;;;;;;;5102559;28;20039;-46
2022/10/15 14:28:58;;;;;;;;;;;;;;;;;;5105767;28;20271;-46
2022/10/15 14:31:24;;;;;;;;;;;;;;;;;;5101833;28;19920;-46
2022/10/15 14:33:50;;;;;;;;;;;;;;;;;;5111233;27;19965;-48
2022/10/15 14:36:16;;;;;;;;;;;;;;;;;;5108809;27;19958;-51
2022/10/15 14:38:42;;;;;;;;;;;;;;;;;;5114947;27;19963;-46
2022/10/15 14:41:08;;;;;;;;;;;;;;;;;;5104604;28;19908;-39
2022/10/15 14:43:33;;;;;;;;;;;;;;;;;;5103782;28;19908;-41
2022/10/15 14:45:59;;;;;;;;;;;;;;;;;;5108824;28;20414;-40
2022/10/15 14:48:25;;;;;;;;;;;;;;;;;;5107538;28;19960;-46
2022/10/15 14:50:52;;;;;;;;;;;;;;;;;;5105200;28;19926;-44
2022/10/15 14:53:18;;;;;;;;;;;;;;;;;;5107331;28;19919;-44
2022/10/15 14:55:44;;;;;;;;;;;;;;;;;;5106668;28;19908;-44
2022/10/15 14:58:10;;;;;;;;;;;;;;;;;;5105210;28;19999;-47
2022/10/15 15:00:35;;;;;;;;;;;;;;;;;;5101190;28;20360;-44
2022/10/15 15:03:01;;;;;;;;;;;;;;;;;;5108192;27;19919;-42
2022/10/15 15:05:27;;;;;;;;;;;;;;;;;;5120082;27;20371;-43
2022/10/15 15:07:54;;;;;;;;;;;;;;;;;;5105106;27;19998;-44
2022/10/15 15:10:20;;;;;;;;;;;;;;;;;;5129792;27;19922;-44
2022/10/15 15:12:46;;;;;;;;;;;;;;;;;;5122419;27;19907;-46
2022/10/15 15:15:12;;;;;;;;;;;;;;;;;;5130821;27;19907;-48
2022/10/15 15:17:38;;;;;;;;;;;;;;;;;;5122573;27;19911;-43
2022/10/15 15:20:04;;;;;;;;;;;;;;;;;;5125660;27;19918;-44
2022/10/15 15:22:30;;;;;;;;;;;;;;;;;;5132297;27;20280;-43
2022/10/15 15:24:56;;;;;;;;;;;;;;;;;;5129249;27;19965;-44
2022/10/15 15:27:22;;;;;;;;;;;;;;;;;;5131407;27;19915;-46
2022/10/15 15:29:48;;;;;;;;;;;;;;;;;;5131960;27;20357;-43
2022/10/15 15:32:14;;;;;;;;;;;;;;;;;;5129211;27;19960;-49
2022/10/15 15:34:40;;;;;;;;;;;;;;;;;;5117778;27;19951;-43
2022/10/15 15:37:07;;;;;;;;;;;;;;;;;;5131424;27;20374;-44
2022/10/15 15:39:32;;;;;;;;;;;;;;;;;;5123748;27;19915;-44
2022/10/15 15:41:58;;;;;;;;;;;;;;;;;;5126462;27;19915;-44
2022/10/15 15:44:24;;;;;;;;;;;;;;;;;;5125066;27;19937;-43
2022/10/15 15:46:53;;;;;;;;;;;;;;;;;;5111495;27;20344;-45
2022/10/15 15:49:19;;;;;;;;;;;;;;;;;;5131761;27;19907;-44
2022/10/15 15:51:45;;;;;;;;;;;;;;;;;;5135022;27;19920;-41
2022/10/15 15:54:11;;;;;;;;;;;;;;;;;;5114944;27;20349;-43
2022/10/15 15:56:39;;;;;;;;;;;;;;;;;;5125400;27;20278;-43
2022/10/15 15:59:04;;;;;;;;;;;;;;;;;;5120158;27;19916;-44
2022/10/15 16:01:30;;;;;;;;;;;;;;;;;;5127069;27;20260;-44
2022/10/15 16:03:56;;;;;;;;;;;;;;;;;;5138697;27;19911;-46
2022/10/15 16:06:22;;;;;;;;;;;;;;;;;;5119365;27;19919;-43
2022/10/15 16:08:48;;;;;;;;;;;;;;;;;;5130573;27;19919;-44
2022/10/15 16:11:14;;;;;;;;;;;;;;;;;;5127454;27;20407;-49
2022/10/15 16:13:41;;;;;;;;;;;;;;;;;;5136719;27;20692;-44
2022/10/15 16:16:07;;;;;;;;;;;;;;;;;;5137601;27;19911;-44
2022/10/15 16:18:33;;;;;;;;;;;;;;;;;;5135618;27;20005;-43
2022/10/15 16:20:59;;;;;;;;;;;;;;;;;;5132716;27;19908;-44
2022/10/15 16:23:25;;;;;;;;;;;;;;;;;;5132914;27;19907;-43
2022/10/15 16:25:53;;;;;;;;;;;;;;;;;;5127869;27;19917;-44
2022/10/15 16:28:19;;;;;;;;;;;;;;;;;;5109467;27;19911;-44
2022/10/15 16:30:45;;;;;;;;;;;;;;;;;;5133114;27;19918;-45
2022/10/15 16:33:10;;;;;;;;;;;;;;;;;;5133683;27;19912;-45
2022/10/15 16:35:36;;;;;;;;;;;;;;;;;;5131674;27;20823;-44